GMMNGUCY

Guest
Details From GMMN - Casablanca Mohammed V Intl
To GUCY - Conakry
Flight Number -
Tags Generated
Created
Modified
Stats Distance 1,469 nm / 2,720 km
Max Altitude 0 ft / 0 m
Waypoints 3
Social Downloads 0
Likes 0
Share VATSIM

Download

Looking for another format? Having issues loading an existing format? Contact us
Advertisement - Login to hide

Notes

Generated

Route

GMMN GIA GUCY

ID Type Via Altitude Latitude Longitude Leg Dist Tot Dist Heading (true) Name
O GMMN APT - 0 ft / 0 m 33.38306˚ -7.59743˚ - 0 nm - -
GIA VOR - 0 ft / 0 m 9.56798˚ -13.61969˚ 1468 nm 1468 nm 194° / 192° CONAKRY VOR-DME
O GUCY APT - 0 ft / 0 m 9.56721˚ -13.62329˚ 0 nm 1468 nm 258° / 258° -

Altitude Profile

Advertisement - Login to hide

Weather


0- 5 10 15 20 25 30 35+ Temperature / ° C

Clouds and Precipitation
Forecast for 2017-12-18 06:00 UTC. Updated 2 hours ago

Ground ~20,000 ft ~40,000 ft Winds

GMMN

Details ICAO GMMN (CMN)
Name Casablanca Mohammed V Intl
Region Morocco
Timezone Africa/Casablanca (UTC+0.0)
Stats Elevation 656 ft / 200 m (AMSL)
Location 33.367466° -7.589964°
Runways 2
Magnetic Variation 1.816° W

METAR

GMMN 180700Z 16003KT 9999 FEW010 05/05 Q1027 NOSIG

Decode

TAF

TAF GMMN 180500Z 1806/1912 VRB02KT 0600 FG SCT004 SCT016 BECMG 1808/1810 04008KT 8000 NSC BECMG 1811/1813 34012KT BECMG 1821/1823 10006KT 7000 SCT013 PROB30 TEMPO 1901/1907 3000 BR SCT006

Decode

Departure Runways

ID Width Length Bearing (true) Bearing (mag) Surface Threshold Offset Overrun Length
17L 148 ft / 45 m 12,224 ft / 3,726 m 164.03° 165.85° Asphalt 0 ft / 0 m 295 ft / 90 m
17R 148 ft / 45 m 12,196 ft / 3,717 m 164.03° 165.85° Asphalt 0 ft / 0 m 197 ft / 60 m
35L 148 ft / 45 m 12,196 ft / 3,717 m 344.04° 345.86° Asphalt 0 ft / 0 m 180 ft / 55 m
35R 148 ft / 45 m 12,224 ft / 3,726 m 344.04° 345.86° Asphalt 0 ft / 0 m 995 ft / 303 m

GUCY

Details ICAO GUCY (CKY)
Name CONAKRY
Region Guinea
Timezone Africa/Conakry (UTC+0.0)
Stats Elevation 72 ft / 22 m (AMSL)
Location 9.576897° -13.611879°
Runways 1
Magnetic Variation 7.004° W

METAR

GUCY 180600Z 00000KT 3000 BR NSC 24/22 Q1010 NOSIG

Decode

TAF

TAF TAF GUCY 172300Z 1806/1912 30006KT 5000 HZ NSC TEMPO 1806/1810 VRB02KT 3000 BR NSC BECMG 1818/1822 VRB02KT 4000 HZ NSC

Decode

Destination Runways

ID Width Length Bearing (true) Bearing (mag) Surface Threshold Offset Overrun Length
06 148 ft / 45 m 10,836 ft / 3,303 m 49.26° 56.26° Asphalt 0 ft / 0 m 197 ft / 60 m
24 148 ft / 45 m 10,836 ft / 3,303 m 229.27° 236.27° Asphalt 0 ft / 0 m 197 ft / 60 m